createdAt,value
2022-08-19T00:04:47.954Z,2.08
2022-08-19T00:09:52.597Z,1.65
2022-08-19T00:14:56.202Z,1.67
2022-08-19T00:19:59.390Z,1.60
2022-08-19T00:25:04.401Z,1.50
2022-08-19T00:30:11.138Z,1.50
2022-08-19T00:35:14.357Z,1.77
2022-08-19T00:40:20.372Z,1.58
2022-08-19T00:45:27.424Z,1.50
2022-08-19T00:50:31.047Z,1.40
2022-08-19T00:55:36.028Z,1.73
2022-08-19T01:00:39.465Z,1.80
2022-08-19T01:05:44.412Z,2.33
2022-08-19T01:10:52.452Z,1.50
2022-08-19T01:15:59.555Z,1.65
2022-08-19T01:21:08.138Z,1.70
2022-08-19T01:26:15.998Z,1.33
2022-08-19T01:31:26.734Z,1.85
2022-08-19T01:36:33.992Z,1.40
2022-08-19T01:41:38.819Z,1.55
2022-08-19T01:46:42.561Z,1.20
2022-08-19T01:51:45.779Z,1.50
2022-08-19T01:56:50.723Z,1.55
2022-08-19T02:01:54.336Z,1.55
2022-08-19T02:06:57.499Z,1.45
2022-08-19T02:12:02.554Z,1.30
2022-08-19T02:17:06.497Z,1.35
2022-08-19T02:22:09.696Z,1.25
2022-08-19T02:27:14.229Z,1.30
2022-08-19T02:32:17.893Z,1.25
2022-08-19T02:37:38.528Z,1.42
2022-08-19T02:42:43.785Z,1.50
2022-08-19T02:47:47.919Z,1.42
2022-08-19T02:52:51.302Z,1.50
2022-08-19T02:57:55.893Z,1.80
2022-08-19T03:02:59.801Z,1.40
2022-08-19T03:08:03.164Z,1.85
2022-08-19T03:13:07.703Z,1.77
2022-08-19T03:18:11.273Z,1.70
2022-08-19T03:23:16.698Z,1.70
2022-08-19T03:28:21.627Z,1.85
2022-08-19T03:33:28.669Z,2.08
2022-08-19T03:38:32.596Z,2.08
2022-08-19T03:43:38.525Z,2.10
2022-08-19T03:48:43.657Z,1.85
2022-08-19T03:53:46.809Z,1.88
2022-08-19T03:58:51.343Z,1.83
2022-08-19T04:03:55.126Z,1.65
2022-08-19T04:09:01.706Z,1.40
2022-08-19T04:14:06.226Z,1.60
2022-08-19T04:19:09.465Z,1.35
2022-08-19T04:24:13.235Z,1.50
2022-08-19T04:29:22.347Z,1.60
2022-08-19T04:34:27.749Z,1.50
2022-08-19T04:39:52.408Z,1.80
2022-08-19T04:45:05.404Z,1.52
2022-08-19T04:50:13.116Z,1.25
2022-08-19T04:55:16.333Z,1.90
2022-08-19T05:00:21.081Z,1.58
2022-08-19T05:05:24.528Z,1.60
2022-08-19T05:10:27.954Z,2.00
2022-08-19T05:15:32.902Z,2.10
2022-08-19T05:20:53.445Z,1.95
2022-08-19T05:25:56.603Z,2.30
2022-08-19T05:31:01.133Z,2.50
2022-08-19T05:36:05.581Z,2.38
2022-08-19T05:41:10.557Z,2.40
2022-08-19T05:46:27.642Z,3.08
2022-08-19T05:51:31.393Z,2.85
2022-08-19T05:56:37.677Z,3.45
2022-08-19T06:01:45.360Z,3.60
2022-08-19T06:06:49.688Z,3.03
2022-08-19T06:11:56.036Z,3.08
2022-08-19T06:17:06.871Z,2.80
2022-08-19T06:22:12.951Z,3.80
2022-08-19T06:27:16.990Z,3.20
2022-08-19T06:32:21.683Z,2.78
2022-08-19T06:37:24.918Z,2.78
2022-08-19T06:42:28.121Z,2.58
2022-08-19T06:47:33.511Z,2.70
2022-08-19T06:52:38.427Z,2.45
2022-08-19T06:57:41.734Z,2.85
2022-08-19T07:02:52.140Z,2.63
2022-08-19T07:08:04.716Z,2.33
2022-08-19T07:13:09.242Z,2.55
2022-08-19T07:18:13.850Z,2.65
2022-08-19T07:23:17.005Z,2.70
2022-08-19T07:28:24.103Z,2.60
2022-08-19T07:33:31.215Z,2.50
2022-08-19T07:38:36.584Z,2.22
2022-08-19T07:43:40.506Z,2.40
2022-08-19T07:48:47.742Z,2.60
2022-08-19T07:53:52.009Z,2.42
2022-08-19T08:04:18.643Z,2.22
2022-08-19T08:09:25.071Z,2.20
2022-08-19T08:14:34.977Z,2.50
2022-08-19T08:19:40.061Z,2.53
2022-08-19T08:24:43.253Z,2.05
2022-08-19T08:29:46.551Z,2.17
2022-08-19T08:34:52.379Z,1.95
2022-08-19T08:39:56.494Z,2.22
2022-08-19T08:45:02.337Z,2.38
2022-08-19T08:50:10.305Z,2.58
2022-08-19T08:55:17.304Z,2.10
2022-08-19T09:00:27.911Z,2.45
2022-08-19T09:05:48.307Z,2.35
2022-08-19T09:10:55.730Z,2.70
2022-08-19T09:16:07.668Z,2.50
2022-08-19T09:21:12.628Z,2.33
2022-08-19T09:26:19.962Z,2.65
2022-08-19T09:31:25.197Z,2.42
2022-08-19T09:36:34.797Z,2.80
2022-08-19T09:41:38.399Z,2.30
2022-08-19T09:46:44.206Z,3.15
2022-08-19T09:51:52.142Z,2.22
2022-08-19T09:56:56.732Z,2.30
2022-08-19T10:02:03.896Z,2.40
2022-08-19T10:07:15.656Z,2.10
2022-08-19T10:12:20.309Z,2.05
2022-08-19T10:17:27.498Z,2.65
2022-08-19T10:22:38.764Z,2.13
2022-08-19T10:27:44.313Z,2.25
2022-08-19T10:32:51.513Z,2.45
2022-08-19T10:38:01.945Z,2.22
2022-08-19T10:43:05.583Z,2.15
2022-08-19T10:48:08.793Z,2.25
2022-08-19T10:53:21.029Z,2.13
2022-08-19T10:58:27.131Z,2.25
2022-08-19T11:03:31.296Z,2.00
2022-08-19T11:08:38.575Z,2.28
2022-08-19T11:13:45.340Z,2.10
2022-08-19T11:18:50.651Z,2.22
2022-08-19T11:23:58.480Z,2.25
2022-08-19T11:29:02.562Z,2.28
2022-08-19T11:34:08.096Z,1.98
2022-08-19T11:39:14.606Z,1.65
2022-08-19T11:44:18.056Z,2.20
2022-08-19T11:49:22.237Z,1.95
2022-08-19T11:54:26.858Z,2.10
2022-08-19T11:59:30.322Z,1.63
2022-08-19T12:04:33.480Z,1.80
2022-08-19T12:09:38.687Z,1.42
2022-08-19T12:14:47.566Z,1.65
2022-08-19T12:19:50.954Z,2.00
2022-08-19T12:24:55.951Z,2.10
2022-08-19T12:29:59.395Z,2.08
2022-08-19T12:35:03.008Z,2.50
2022-08-19T12:40:08.867Z,1.90
2022-08-19T12:45:13.111Z,1.80
2022-08-19T12:50:16.285Z,1.83
2022-08-19T12:55:21.459Z,2.03
2022-08-19T13:00:24.956Z,2.38
2022-08-19T13:05:30.791Z,2.63
2022-08-19T13:10:37.183Z,2.45
2022-08-19T13:15:44.005Z,2.25
2022-08-19T13:20:52.779Z,1.65
2022-08-19T13:26:03.144Z,2.10
2022-08-19T13:31:24.367Z,2.30
2022-08-19T13:36:27.813Z,1.85
2022-08-19T13:41:32.457Z,1.88
2022-08-19T13:46:35.967Z,1.95
2022-08-19T13:51:40.824Z,2.15
2022-08-19T13:56:48.007Z,1.77
2022-08-19T14:01:51.273Z,2.13
2022-08-19T14:06:54.452Z,2.03
2022-08-19T14:11:59.356Z,1.90
2022-08-19T14:17:02.509Z,2.00
2022-08-19T14:22:06.430Z,2.00
2022-08-19T14:27:10.970Z,2.60
2022-08-19T14:32:16.896Z,2.60
2022-08-19T14:37:20.483Z,2.10
2022-08-19T14:42:25.615Z,2.60
2022-08-19T14:47:29.312Z,1.83
2022-08-19T14:52:36.180Z,1.60
2022-08-19T14:57:42.758Z,1.17
2022-08-19T15:02:46.251Z,1.00
2022-08-19T15:07:49.852Z,1.27
2022-08-19T15:12:55.681Z,1.95
2022-08-19T15:18:03.546Z,5.07
2022-08-19T15:23:07.299Z,3.40
2022-08-19T15:28:12.887Z,2.08
2022-08-19T15:33:18.538Z,1.50
2022-08-19T15:38:23.866Z,1.70
2022-08-19T15:43:28.621Z,1.40
2022-08-19T15:48:31.918Z,2.47
2022-08-19T15:53:35.240Z,2.03
2022-08-19T15:58:57.965Z,2.03
2022-08-19T16:04:19.528Z,1.45
2022-08-19T16:09:27.760Z,1.38
2022-08-19T16:14:35.220Z,1.35
2022-08-19T16:19:38.923Z,1.17
2022-08-19T16:24:42.237Z,1.70
2022-08-19T16:29:46.883Z,1.30
2022-08-19T16:34:50.793Z,1.00
2022-08-19T16:39:54.435Z,1.48
2022-08-19T16:44:59.122Z,1.13
2022-08-19T16:50:02.303Z,1.50
2022-08-19T16:55:08.523Z,1.65
2022-08-19T17:00:14.923Z,1.08
2022-08-19T17:05:18.928Z,1.58
2022-08-19T17:10:22.145Z,1.13
2022-08-19T17:15:26.841Z,1.52
2022-08-19T17:20:30.034Z,1.50
2022-08-19T17:25:33.930Z,1.27
2022-08-19T17:30:38.648Z,1.83
2022-08-19T17:35:43.947Z,1.90
2022-08-19T17:40:47.852Z,1.40
2022-08-19T17:45:52.374Z,1.90
2022-08-19T17:50:55.511Z,1.40
2022-08-19T17:55:59.019Z,1.30
2022-08-19T18:01:03.985Z,1.70
2022-08-19T18:06:09.744Z,2.15
2022-08-19T18:11:13.417Z,1.00
2022-08-19T18:16:18.899Z,1.40
2022-08-19T18:21:22.521Z,1.33
2022-08-19T18:26:26.007Z,1.38
2022-08-19T18:31:30.588Z,1.63
2022-08-19T18:36:53.061Z,1.73
2022-08-19T18:42:15.015Z,1.20
2022-08-19T18:47:37.119Z,1.50
2022-08-19T18:52:40.778Z,2.10
2022-08-19T18:57:44.013Z,1.45
2022-08-19T19:02:48.723Z,1.63
2022-08-19T19:07:53.320Z,2.03
2022-08-19T19:12:57.088Z,1.90
2022-08-19T19:18:01.932Z,1.38
2022-08-19T19:23:05.730Z,2.25
2022-08-19T19:28:10.099Z,2.05
2022-08-19T19:33:19.431Z,1.95
2022-08-19T19:38:22.822Z,2.10
2022-08-19T19:43:26.583Z,2.22
2022-08-19T19:48:31.161Z,1.17
2022-08-19T19:53:34.789Z,2.00
2022-08-19T19:58:38.170Z,2.40
2022-08-19T20:03:43.854Z,1.73
2022-08-19T20:09:04.776Z,1.73
2022-08-19T20:14:12.614Z,1.60
2022-08-19T20:19:19.929Z,1.83
2022-08-19T20:24:26.017Z,1.55
2022-08-19T20:29:40.101Z,1.10
2022-08-19T20:34:49.211Z,1.30
2022-08-19T20:39:52.574Z,1.40
2022-08-19T20:44:55.856Z,1.20
2022-08-19T20:50:00.407Z,1.85
2022-08-19T20:55:03.605Z,1.92
2022-08-19T21:00:10.657Z,1.98
2022-08-19T21:05:15.539Z,2.00
2022-08-19T21:10:18.956Z,2.20
2022-08-19T21:15:22.214Z,1.85
2022-08-19T21:20:26.896Z,1.63
2022-08-19T21:25:30.436Z,1.27
2022-08-19T21:30:34.103Z,1.20
2022-08-19T21:35:38.702Z,1.50
2022-08-19T21:40:42.017Z,1.70
2022-08-19T21:45:45.440Z,1.60
2022-08-19T21:50:50.981Z,1.10
2022-08-19T21:55:54.236Z,1.30
2022-08-19T22:00:57.788Z,0.85
2022-08-19T22:06:02.949Z,0.85
2022-08-19T22:11:06.508Z,0.82
2022-08-19T22:16:10.201Z,1.10
2022-08-19T22:21:15.273Z,0.95
2022-08-19T22:26:23.397Z,0.90
2022-08-19T22:31:26.601Z,0.95
2022-08-19T22:36:32.287Z,0.88
2022-08-19T22:41:35.622Z,0.80
2022-08-19T22:46:38.998Z,0.90
2022-08-19T22:52:09.428Z,0.82
2022-08-19T22:57:12.653Z,0.98
2022-08-19T23:02:20.231Z,0.80
2022-08-19T23:07:25.127Z,1.05
2022-08-19T23:12:30.657Z,0.82
2022-08-19T23:17:33.983Z,1.08
2022-08-19T23:22:41.738Z,1.08
2022-08-19T23:28:03.471Z,0.90
2022-08-19T23:33:14.422Z,1.00
2022-08-19T23:38:19.577Z,1.23
2022-08-19T23:43:24.650Z,1.08
2022-08-19T23:48:31.228Z,1.20
2022-08-19T23:53:37.047Z,1.20
2022-08-19T23:58:40.776Z,1.20
